createdAt,value
2023-08-11T00:00:06.134Z,15.80
2023-08-11T00:02:41.616Z,13.38
2023-08-11T00:05:09.560Z,13.90
2023-08-11T00:07:37.132Z,14.70
2023-08-11T00:10:06.117Z,14.50
2023-08-11T00:12:33.369Z,14.10
2023-08-11T00:15:00.692Z,13.52
2023-08-11T00:17:28.250Z,15.00
2023-08-11T00:19:55.601Z,14.90
2023-08-11T00:22:23.948Z,15.23
2023-08-11T00:24:51.160Z,14.82
2023-08-11T00:27:18.552Z,14.35
2023-08-11T00:29:46.585Z,16.15
2023-08-11T00:32:14.697Z,14.20
2023-08-11T00:34:42.032Z,16.33
2023-08-11T00:37:09.612Z,14.30
2023-08-11T00:39:37.025Z,14.52
2023-08-11T00:42:04.628Z,14.38
2023-08-11T00:44:32.264Z,15.88
2023-08-11T00:46:59.577Z,15.98
2023-08-11T00:49:27.012Z,15.70
2023-08-11T00:51:54.418Z,15.15
2023-08-11T00:54:22.476Z,15.48
2023-08-11T00:56:50.071Z,14.88
2023-08-11T00:59:17.509Z,16.50
2023-08-11T01:01:44.803Z,16.95
2023-08-11T01:04:13.239Z,16.25
2023-08-11T01:06:46.204Z,14.95
2023-08-11T01:09:31.821Z,13.45
2023-08-11T01:12:07.332Z,14.05
2023-08-11T01:14:38.866Z,13.88
2023-08-11T01:17:08.445Z,15.30
2023-08-11T01:19:36.931Z,15.18
2023-08-11T01:22:05.652Z,14.93
2023-08-11T01:24:33.076Z,15.05
2023-08-11T01:27:00.381Z,16.88
2023-08-11T01:29:28.676Z,20.05
2023-08-11T01:31:55.986Z,13.48
2023-08-11T01:34:23.679Z,15.13
2023-08-11T01:36:51.817Z,15.32
2023-08-11T01:39:19.069Z,15.15
2023-08-11T01:41:46.751Z,17.70
2023-08-11T01:44:15.255Z,15.93
2023-08-11T01:46:44.076Z,16.98
2023-08-11T01:49:13.817Z,14.10
2023-08-11T01:51:41.613Z,14.48
2023-08-11T01:54:09.578Z,15.80
2023-08-11T01:56:40.720Z,16.52
2023-08-11T01:59:13.888Z,16.63
2023-08-11T02:01:42.227Z,16.38
2023-08-11T02:04:12.598Z,16.95
2023-08-11T02:06:40.795Z,16.02
2023-08-11T02:09:12.921Z,17.20
2023-08-11T02:11:40.868Z,16.05
2023-08-11T02:14:08.144Z,20.27
2023-08-11T02:16:35.628Z,15.70
2023-08-11T02:19:02.948Z,19.88
2023-08-11T02:21:30.251Z,18.63
2023-08-11T02:23:57.585Z,17.67
2023-08-11T02:26:24.985Z,16.83
2023-08-11T02:28:53.347Z,16.40
2023-08-11T02:31:20.765Z,17.70
2023-08-11T02:33:48.383Z,18.00
2023-08-11T02:36:15.708Z,17.73
2023-08-11T02:38:43.099Z,15.90
2023-08-11T02:41:10.385Z,18.08
2023-08-11T02:43:38.244Z,17.05
2023-08-11T02:46:07.308Z,17.77
2023-08-11T02:48:39.728Z,16.50
2023-08-11T02:51:07.067Z,18.17
2023-08-11T02:53:34.309Z,16.42
2023-08-11T02:56:06.353Z,18.67
2023-08-11T02:58:34.810Z,15.82
2023-08-11T03:01:02.438Z,19.00
2023-08-11T03:03:30.055Z,18.50
2023-08-11T03:05:58.188Z,18.85
2023-08-11T03:08:25.571Z,19.38
2023-08-11T03:10:57.193Z,17.55
2023-08-11T03:13:30.373Z,15.95
2023-08-11T03:16:00.013Z,19.75
2023-08-11T03:18:28.138Z,18.13
2023-08-11T03:21:09.787Z,18.33
2023-08-11T03:23:44.089Z,17.33
2023-08-11T03:26:11.572Z,18.02
2023-08-11T03:28:39.013Z,16.23
2023-08-11T03:31:06.736Z,16.17
2023-08-11T03:33:38.325Z,19.85
2023-08-11T03:36:09.632Z,19.75
2023-08-11T03:38:37.846Z,16.13
2023-08-11T03:41:05.098Z,20.30
2023-08-11T03:43:32.798Z,17.17
2023-08-11T03:46:00.703Z,18.23
2023-08-11T03:48:28.186Z,17.45
2023-08-11T03:51:00.176Z,17.30
2023-08-11T03:53:28.087Z,20.38
2023-08-11T03:55:55.482Z,17.10
2023-08-11T03:58:24.238Z,20.73
2023-08-11T04:00:55.079Z,18.58
2023-08-11T04:03:23.648Z,20.10
2023-08-11T04:05:51.646Z,18.25
2023-08-11T04:08:19.844Z,18.52
2023-08-11T04:10:47.091Z,21.33
2023-08-11T04:13:14.755Z,18.15
2023-08-11T04:15:42.188Z,18.63
2023-08-11T04:18:09.589Z,21.52
2023-08-11T04:20:38.113Z,19.38
2023-08-11T04:23:05.892Z,19.08
2023-08-11T04:25:35.479Z,17.77
2023-08-11T04:28:03.747Z,19.17
2023-08-11T04:30:31.067Z,22.65
2023-08-11T04:32:59.622Z,21.75
2023-08-11T04:35:30.075Z,19.27
2023-08-11T04:37:58.394Z,21.08
2023-08-11T04:40:28.501Z,19.33
2023-08-11T04:42:57.498Z,24.65
2023-08-11T04:45:31.143Z,22.70
2023-08-11T04:47:58.576Z,21.33
2023-08-11T04:50:26.838Z,20.60
2023-08-11T04:52:58.424Z,22.17
2023-08-11T04:55:25.720Z,19.40
2023-08-11T04:57:53.873Z,21.52
2023-08-11T05:00:21.440Z,22.35
2023-08-11T05:02:48.865Z,21.40
2023-08-11T05:05:16.439Z,21.77
2023-08-11T05:07:43.748Z,19.98
2023-08-11T05:10:11.548Z,22.67
2023-08-11T05:12:38.876Z,21.65
2023-08-11T05:15:07.456Z,18.75
2023-08-11T05:17:35.003Z,20.95
2023-08-11T05:20:02.261Z,21.65
2023-08-11T05:22:29.593Z,20.27
2023-08-11T05:24:56.817Z,23.02
2023-08-11T05:27:24.169Z,24.23
2023-08-11T05:29:51.662Z,21.70
2023-08-11T05:32:18.964Z,19.70
2023-08-11T05:34:46.898Z,22.58
2023-08-11T05:37:14.192Z,23.13
2023-08-11T05:39:42.689Z,19.83
2023-08-11T05:42:10.181Z,21.58
2023-08-11T05:44:37.812Z,19.92
2023-08-11T05:47:05.685Z,20.83
2023-08-11T05:49:33.067Z,21.83
2023-08-11T05:52:00.426Z,21.60
2023-08-11T05:54:27.759Z,22.08
2023-08-11T05:56:55.683Z,23.92
2023-08-11T05:59:23.234Z,20.80
2023-08-11T06:01:50.598Z,20.15
2023-08-11T06:04:18.153Z,19.55
2023-08-11T06:06:45.486Z,22.25
2023-08-11T06:09:12.733Z,19.60
2023-08-11T06:11:40.148Z,18.10
2023-08-11T06:14:07.588Z,20.58
2023-08-11T06:16:34.981Z,20.92
2023-08-11T06:19:02.804Z,21.13
2023-08-11T06:21:30.046Z,20.92
2023-08-11T06:23:57.385Z,21.02
2023-08-11T06:26:24.720Z,20.90
2023-08-11T06:28:52.129Z,23.55
2023-08-11T06:31:20.753Z,22.60
2023-08-11T06:33:48.334Z,21.15
2023-08-11T06:36:15.607Z,23.23
2023-08-11T06:38:43.959Z,21.15
2023-08-11T06:41:11.410Z,21.05
2023-08-11T06:43:40.071Z,21.50
2023-08-11T06:46:08.058Z,23.15
2023-08-11T06:48:35.457Z,22.55
2023-08-11T06:51:03.309Z,18.55
2023-08-11T06:53:30.579Z,21.15
2023-08-11T06:55:57.949Z,20.70
2023-08-11T06:58:26.517Z,22.20
2023-08-11T07:00:54.226Z,19.92
2023-08-11T07:03:21.673Z,19.42
2023-08-11T07:05:52.615Z,20.95
2023-08-11T07:08:20.580Z,20.42
2023-08-11T07:10:47.947Z,19.02
2023-08-11T07:13:15.172Z,17.67
2023-08-11T07:15:43.562Z,18.70
2023-08-11T07:18:11.496Z,17.45
2023-08-11T07:20:43.058Z,17.33
2023-08-11T07:23:10.322Z,18.27
2023-08-11T07:25:37.724Z,17.92
2023-08-11T07:28:05.505Z,15.50
2023-08-11T07:30:32.714Z,12.95
2023-08-11T07:33:01.995Z,13.90
2023-08-11T07:35:29.533Z,14.73
2023-08-11T07:37:57.281Z,15.75
2023-08-11T07:40:24.564Z,15.80
2023-08-11T07:42:51.824Z,16.50
2023-08-11T07:45:19.230Z,15.98
2023-08-11T07:47:47.302Z,16.38
2023-08-11T07:50:15.468Z,16.42
2023-08-11T07:52:42.767Z,14.63
2023-08-11T07:55:10.302Z,15.90
2023-08-11T07:57:37.775Z,15.00
2023-08-11T08:00:06.475Z,16.02
2023-08-11T08:02:39.769Z,12.18
2023-08-11T08:05:12.772Z,13.10
2023-08-11T08:07:40.994Z,19.23
2023-08-11T08:10:12.683Z,12.23
2023-08-11T08:12:41.306Z,12.30
2023-08-11T08:15:09.409Z,11.52
2023-08-11T08:17:36.951Z,14.02
2023-08-11T08:20:06.128Z,14.02
2023-08-11T08:22:33.972Z,11.25
2023-08-11T08:25:01.214Z,14.93
2023-08-11T08:27:28.617Z,18.95
2023-08-11T08:29:56.193Z,10.85
2023-08-11T08:32:23.638Z,13.55
2023-08-11T08:34:50.921Z,11.52
2023-08-11T08:37:21.685Z,10.13
2023-08-11T08:39:49.148Z,10.52
2023-08-11T08:42:16.871Z,11.23
2023-08-11T08:44:44.481Z,11.60
2023-08-11T08:47:12.197Z,10.43
2023-08-11T08:49:40.807Z,11.30
2023-08-11T08:52:08.272Z,9.95
2023-08-11T08:54:35.885Z,9.35
2023-08-11T08:57:06.889Z,11.20
2023-08-11T08:59:34.427Z,8.93
2023-08-11T09:02:04.890Z,8.38
2023-08-11T09:04:34.116Z,9.05
2023-08-11T09:07:02.192Z,10.57
2023-08-11T09:09:29.515Z,9.32
2023-08-11T09:11:56.912Z,8.85
2023-08-11T09:14:24.587Z,9.40
2023-08-11T09:16:53.138Z,8.27
2023-08-11T09:19:20.794Z,8.82
2023-08-11T09:21:48.193Z,7.45
2023-08-11T09:24:16.261Z,9.15
2023-08-11T09:26:45.497Z,9.63
2023-08-11T09:29:15.987Z,6.47
2023-08-11T09:31:43.367Z,8.23
2023-08-11T09:34:19.979Z,9.73
2023-08-11T09:36:49.139Z,8.48
2023-08-11T09:39:16.820Z,8.68
2023-08-11T09:41:46.337Z,7.13
2023-08-11T09:44:16.079Z,8.50
2023-08-11T09:46:43.884Z,8.02
2023-08-11T09:49:11.336Z,7.00
2023-08-11T09:51:40.422Z,7.63
2023-08-11T09:54:11.869Z,8.23
2023-08-11T09:56:41.366Z,6.57
2023-08-11T09:59:20.942Z,7.75
2023-08-11T10:01:48.918Z,6.45
2023-08-11T10:04:35.622Z,8.57
2023-08-11T10:07:03.874Z,6.63
2023-08-11T10:09:33.464Z,6.70
2023-08-11T10:12:01.168Z,8.30
2023-08-11T10:14:30.069Z,8.13
2023-08-11T10:16:59.452Z,8.07
2023-08-11T10:19:27.040Z,7.03
2023-08-11T10:21:54.234Z,7.20
2023-08-11T10:24:22.345Z,6.80
2023-08-11T10:26:50.253Z,5.93
2023-08-11T10:29:18.042Z,8.55
2023-08-11T10:31:55.984Z,8.13
2023-08-11T10:34:24.545Z,7.00
2023-08-11T10:36:56.039Z,6.80
2023-08-11T10:39:23.870Z,6.65
2023-08-11T10:41:51.548Z,7.03
2023-08-11T10:44:27.782Z,9.57
2023-08-11T10:46:55.200Z,9.38
2023-08-11T10:49:35.833Z,5.00
2023-08-11T10:52:04.685Z,5.57
2023-08-11T10:54:32.380Z,5.78
2023-08-11T10:57:02.630Z,6.00
2023-08-11T10:59:31.645Z,7.13
2023-08-11T11:02:02.281Z,7.47
2023-08-11T11:04:34.584Z,5.95
2023-08-11T11:07:02.326Z,8.57
2023-08-11T11:09:30.065Z,7.65
2023-08-11T11:11:57.905Z,6.53
2023-08-11T11:14:28.469Z,8.52
2023-08-11T11:17:00.368Z,7.05
2023-08-11T11:19:28.486Z,9.07
2023-08-11T11:21:56.086Z,6.05
2023-08-11T11:24:23.568Z,8.48
2023-08-11T11:26:50.937Z,7.38
2023-08-11T11:29:24.355Z,8.05
2023-08-11T11:31:52.181Z,7.70
2023-08-11T11:34:19.528Z,7.82
2023-08-11T11:36:47.100Z,7.30
2023-08-11T11:39:14.840Z,8.15
2023-08-11T11:41:42.159Z,5.65
2023-08-11T11:44:09.544Z,6.13
2023-08-11T11:46:37.038Z,5.75
2023-08-11T11:49:15.832Z,5.68
2023-08-11T11:51:51.671Z,6.40
2023-08-11T11:54:18.947Z,7.80
2023-08-11T11:56:58.285Z,6.13
2023-08-11T11:59:31.329Z,7.25
2023-08-11T12:02:02.587Z,6.30
2023-08-11T12:04:30.520Z,5.60
2023-08-11T12:06:58.076Z,5.75
2023-08-11T12:09:25.511Z,6.38
2023-08-11T12:11:56.510Z,6.55
2023-08-11T12:14:27.030Z,5.32
2023-08-11T12:16:54.339Z,7.15
2023-08-11T12:19:22.052Z,8.80
2023-08-11T12:21:49.232Z,7.00
2023-08-11T12:24:16.603Z,7.22
2023-08-11T12:26:43.832Z,5.05
2023-08-11T12:29:11.120Z,6.75
2023-08-11T12:31:38.629Z,7.93
2023-08-11T12:34:05.877Z,8.88
2023-08-11T12:36:33.150Z,7.15
2023-08-11T12:39:00.564Z,5.90
2023-08-11T12:41:27.787Z,8.10
2023-08-11T12:43:55.078Z,7.07
2023-08-11T12:46:22.564Z,7.47
2023-08-11T12:48:49.812Z,6.80
2023-08-11T12:51:17.207Z,7.82
2023-08-11T12:53:44.344Z,7.32
2023-08-11T12:56:11.885Z,6.78
2023-08-11T12:58:40.350Z,7.50
2023-08-11T13:01:08.075Z,9.20
2023-08-11T13:03:35.783Z,8.73
2023-08-11T13:06:03.286Z,6.95
2023-08-11T13:08:30.997Z,7.43
2023-08-11T13:10:58.345Z,7.95
2023-08-11T13:13:25.624Z,8.43
2023-08-11T13:15:53.515Z,12.80
2023-08-11T13:18:21.117Z,8.38
2023-08-11T13:20:48.506Z,9.38
2023-08-11T13:23:15.726Z,9.50
2023-08-11T13:25:42.935Z,8.57
2023-08-11T13:28:10.192Z,8.10
2023-08-11T13:30:39.286Z,9.05
2023-08-11T13:33:08.326Z,8.52
2023-08-11T13:35:35.664Z,9.90
2023-08-11T13:38:02.966Z,9.00
2023-08-11T13:40:30.306Z,7.35
2023-08-11T13:42:57.732Z,8.40
2023-08-11T13:45:25.111Z,7.68
2023-08-11T13:47:52.461Z,6.95
2023-08-11T13:50:19.990Z,7.97
2023-08-11T13:52:47.291Z,8.48
2023-08-11T13:55:16.258Z,8.40
2023-08-11T13:57:46.064Z,7.10
2023-08-11T14:00:13.866Z,8.60
2023-08-11T14:02:41.223Z,9.93
2023-08-11T14:05:08.827Z,7.65
2023-08-11T14:07:36.523Z,7.97
2023-08-11T14:10:04.109Z,6.80
2023-08-11T14:12:31.393Z,8.88
2023-08-11T14:14:58.680Z,10.10
2023-08-11T14:17:26.111Z,9.13
2023-08-11T14:19:53.468Z,10.07
2023-08-11T14:22:20.870Z,10.10
2023-08-11T14:24:48.256Z,13.55
2023-08-11T14:27:15.570Z,9.68
2023-08-11T14:29:42.809Z,10.10
2023-08-11T14:32:24.658Z,9.13
2023-08-11T14:34:53.222Z,9.15
2023-08-11T14:37:21.980Z,10.25
2023-08-11T14:39:49.255Z,9.13
2023-08-11T14:42:16.627Z,8.98
2023-08-11T14:44:44.372Z,8.52
2023-08-11T14:47:15.420Z,8.30
2023-08-11T14:49:43.605Z,10.95
2023-08-11T14:52:11.912Z,11.20
2023-08-11T14:54:39.627Z,10.65
2023-08-11T14:57:07.760Z,10.27
2023-08-11T14:59:35.195Z,8.60
2023-08-11T15:02:02.526Z,11.15
2023-08-11T15:04:29.808Z,10.73
2023-08-11T15:06:57.395Z,8.95
2023-08-11T15:09:24.811Z,8.90
2023-08-11T15:11:52.120Z,9.02
2023-08-11T15:14:19.536Z,10.40
2023-08-11T15:16:46.945Z,8.30
2023-08-11T15:19:14.210Z,8.73
2023-08-11T15:21:41.394Z,8.38
2023-08-11T15:24:09.089Z,9.93
2023-08-11T15:26:36.329Z,10.70
2023-08-11T15:29:03.756Z,7.55
2023-08-11T15:31:31.206Z,9.45
2023-08-11T15:33:58.490Z,9.57
2023-08-11T15:36:25.725Z,8.98
2023-08-11T15:38:53.012Z,8.15
2023-08-11T15:41:21.074Z,8.73
2023-08-11T15:43:48.473Z,9.50
2023-08-11T15:46:15.918Z,9.05
2023-08-11T15:48:43.409Z,9.13
2023-08-11T15:51:10.944Z,9.50
2023-08-11T15:53:38.100Z,9.63
2023-08-11T15:56:05.676Z,8.68
2023-08-11T15:58:33.315Z,10.32
2023-08-11T16:01:03.559Z,9.75
2023-08-11T16:03:31.006Z,10.23
2023-08-11T16:05:58.339Z,7.43
2023-08-11T16:08:25.646Z,6.47
2023-08-11T16:10:53.941Z,11.82
2023-08-11T16:13:21.190Z,7.70
2023-08-11T16:15:48.619Z,8.85
2023-08-11T16:18:15.940Z,8.80
2023-08-11T16:20:43.111Z,9.55
2023-08-11T16:23:10.435Z,6.43
2023-08-11T16:25:37.692Z,7.93
2023-08-11T16:28:05.101Z,9.90
2023-08-11T16:30:32.562Z,7.28
2023-08-11T16:32:59.829Z,6.75
2023-08-11T16:35:27.191Z,6.63
2023-08-11T16:37:54.412Z,8.30
2023-08-11T16:40:21.689Z,8.02
2023-08-11T16:42:48.862Z,6.82
2023-08-11T16:45:16.274Z,6.50
2023-08-11T16:47:43.594Z,7.20
2023-08-11T16:50:11.563Z,7.85
2023-08-11T16:52:38.794Z,5.78
2023-08-11T16:55:06.790Z,7.82
2023-08-11T16:57:34.620Z,7.13
2023-08-11T17:00:01.848Z,11.02
2023-08-11T17:02:29.202Z,10.27
2023-08-11T17:04:56.535Z,11.95
2023-08-11T17:07:23.704Z,9.88
2023-08-11T17:09:50.912Z,9.75
2023-08-11T17:12:18.124Z,8.52
2023-08-11T17:14:45.355Z,8.45
2023-08-11T17:17:12.735Z,10.40
2023-08-11T17:19:40.320Z,9.93
2023-08-11T17:22:10.794Z,13.32
2023-08-11T17:24:41.445Z,11.50
2023-08-11T17:27:08.730Z,7.53
2023-08-11T17:29:36.143Z,11.40
2023-08-11T17:32:03.621Z,10.65
2023-08-11T17:34:31.574Z,16.13
2023-08-11T17:36:59.841Z,8.57
2023-08-11T17:39:28.228Z,8.98
2023-08-11T17:42:03.053Z,7.78
2023-08-11T17:44:30.298Z,7.70
2023-08-11T17:46:57.764Z,7.28
2023-08-11T17:49:25.029Z,8.15
2023-08-11T17:51:52.328Z,8.57
2023-08-11T17:54:20.069Z,6.50
2023-08-11T17:56:47.623Z,7.30
2023-08-11T17:59:14.964Z,6.32
2023-08-11T18:01:42.308Z,13.82
2023-08-11T18:04:09.691Z,6.55
2023-08-11T18:06:37.368Z,8.73
2023-08-11T18:09:05.067Z,6.03
2023-08-11T18:11:32.481Z,7.38
2023-08-11T18:13:59.783Z,7.07
2023-08-11T18:16:28.278Z,7.43
2023-08-11T18:18:55.963Z,7.45
2023-08-11T18:21:23.382Z,6.07
2023-08-11T18:23:50.785Z,8.10
2023-08-11T18:26:18.126Z,8.48
2023-08-11T18:28:45.511Z,9.77
2023-08-11T18:31:13.681Z,7.55
2023-08-11T18:33:41.150Z,8.05
2023-08-11T18:36:08.803Z,8.02
2023-08-11T18:38:36.186Z,5.60
2023-08-11T18:41:04.037Z,9.25
2023-08-11T18:43:31.768Z,7.55
2023-08-11T18:45:59.114Z,6.55
2023-08-11T18:48:26.482Z,6.07
2023-08-11T18:50:54.496Z,5.28
2023-08-11T18:53:21.835Z,8.68
2023-08-11T18:55:49.104Z,8.18
2023-08-11T18:58:16.652Z,11.02
2023-08-11T19:00:44.122Z,7.13
2023-08-11T19:03:11.373Z,9.63
2023-08-11T19:05:40.554Z,7.10
2023-08-11T19:08:08.500Z,7.03
2023-08-11T19:10:36.062Z,6.55
2023-08-11T19:13:03.423Z,7.00
2023-08-11T19:15:31.602Z,7.78
2023-08-11T19:17:58.924Z,11.80
2023-08-11T19:20:26.194Z,6.55
2023-08-11T19:22:53.560Z,4.63
2023-08-11T19:25:20.785Z,12.25
2023-08-11T19:27:48.132Z,3.75
2023-08-11T19:30:15.416Z,5.07
2023-08-11T19:32:42.866Z,5.05
2023-08-11T19:35:10.308Z,5.15
2023-08-11T19:37:37.609Z,7.68
2023-08-11T19:40:05.289Z,4.45
2023-08-11T19:42:32.619Z,5.03
2023-08-11T19:44:59.838Z,5.32
2023-08-11T19:47:27.149Z,5.75
2023-08-11T19:49:54.653Z,6.53
2023-08-11T19:52:22.096Z,6.15
2023-08-11T19:54:50.622Z,6.85
2023-08-11T19:57:17.889Z,4.78
2023-08-11T19:59:45.451Z,4.85
2023-08-11T20:02:12.734Z,3.65
2023-08-11T20:04:40.067Z,4.18
2023-08-11T20:07:07.500Z,4.10
2023-08-11T20:09:36.642Z,5.00
2023-08-11T20:12:04.422Z,4.35
2023-08-11T20:14:31.835Z,4.65
2023-08-11T20:16:59.203Z,4.95
2023-08-11T20:19:26.420Z,6.43
2023-08-11T20:21:53.923Z,5.47
2023-08-11T20:24:21.198Z,7.50
2023-08-11T20:26:56.762Z,6.07
2023-08-11T20:29:25.088Z,6.32
2023-08-11T20:31:56.054Z,5.88
2023-08-11T20:34:24.174Z,9.40
2023-08-11T20:36:51.932Z,4.53
2023-08-11T20:39:22.776Z,5.47
2023-08-11T20:41:50.624Z,5.57
2023-08-11T20:44:18.020Z,5.18
2023-08-11T20:46:45.406Z,5.43
2023-08-11T20:49:12.762Z,6.10
2023-08-11T20:51:40.129Z,6.57
2023-08-11T20:54:07.423Z,7.18
2023-08-11T20:56:34.648Z,8.45
2023-08-11T20:59:02.069Z,7.38
2023-08-11T21:01:29.367Z,9.50
2023-08-11T21:03:56.724Z,6.85
2023-08-11T21:06:24.103Z,6.28
2023-08-11T21:08:52.338Z,7.43
2023-08-11T21:11:19.688Z,7.25
2023-08-11T21:13:46.954Z,9.23
2023-08-11T21:16:15.134Z,6.47
2023-08-11T21:18:42.518Z,7.38
2023-08-11T21:21:09.978Z,6.47
2023-08-11T21:23:37.328Z,5.60
2023-08-11T21:26:04.841Z,6.85
2023-08-11T21:28:32.024Z,6.25
2023-08-11T21:31:12.086Z,6.45
2023-08-11T21:33:45.310Z,8.48
2023-08-11T21:36:12.820Z,9.80
2023-08-11T21:38:40.308Z,8.43
2023-08-11T21:41:07.593Z,7.75
2023-08-11T21:43:34.817Z,12.77
2023-08-11T21:46:02.170Z,8.77
2023-08-11T21:48:29.528Z,8.20
2023-08-11T21:50:57.085Z,7.28
2023-08-11T21:53:24.492Z,8.68
2023-08-11T21:55:52.246Z,8.13
2023-08-11T21:58:19.556Z,10.77
2023-08-11T22:00:46.908Z,8.88
2023-08-11T22:03:14.394Z,7.63
2023-08-11T22:05:41.784Z,6.80
2023-08-11T22:08:09.106Z,11.52
2023-08-11T22:10:37.204Z,10.45
2023-08-11T22:13:04.835Z,8.10
2023-08-11T22:15:32.125Z,8.95
2023-08-11T22:17:59.389Z,8.45
2023-08-11T22:20:26.823Z,11.55
2023-08-11T22:22:54.229Z,9.30
2023-08-11T22:25:21.884Z,8.23
2023-08-11T22:27:49.477Z,10.07
2023-08-11T22:30:17.230Z,10.30
2023-08-11T22:32:44.795Z,8.60
2023-08-11T22:35:12.580Z,7.75
2023-08-11T22:37:40.801Z,9.70
2023-08-11T22:40:08.655Z,8.60
2023-08-11T22:42:35.937Z,10.32
2023-08-11T22:45:03.402Z,10.45
2023-08-11T22:47:30.888Z,8.70
2023-08-11T22:49:58.218Z,7.80
2023-08-11T22:52:25.630Z,11.55
2023-08-11T22:54:53.717Z,8.85
2023-08-11T22:57:22.177Z,8.45
2023-08-11T22:59:50.214Z,9.60
2023-08-11T23:02:17.547Z,9.10
2023-08-11T23:04:44.799Z,9.23
2023-08-11T23:07:12.797Z,10.07
2023-08-11T23:09:40.307Z,8.15
2023-08-11T23:12:07.980Z,9.70
2023-08-11T23:14:35.231Z,8.02
2023-08-11T23:17:02.740Z,10.20
2023-08-11T23:19:30.046Z,10.30
2023-08-11T23:21:57.276Z,7.70
2023-08-11T23:24:24.497Z,7.47
2023-08-11T23:26:51.726Z,9.32
2023-08-11T23:29:18.946Z,8.38
2023-08-11T23:31:46.308Z,9.57
2023-08-11T23:34:13.557Z,7.47
2023-08-11T23:36:40.841Z,10.25
2023-08-11T23:39:09.013Z,7.75
2023-08-11T23:41:36.312Z,9.13
2023-08-11T23:44:03.715Z,11.85
2023-08-11T23:46:30.965Z,10.07
2023-08-11T23:48:58.243Z,9.27
2023-08-11T23:51:28.139Z,8.65
2023-08-11T23:53:57.523Z,10.85
2023-08-11T23:56:24.798Z,10.93
2023-08-11T23:58:52.447Z,10.55
